createdAt,value
2019-05-28T00:00:09.000Z,14.10
2019-05-28T00:04:55.000Z,14.08
2019-05-28T00:09:43.000Z,14.05
2019-05-28T00:14:31.000Z,14.01
2019-05-28T00:19:18.000Z,13.95
2019-05-28T00:24:05.000Z,13.88
2019-05-28T00:28:53.000Z,13.83
2019-05-28T00:33:40.000Z,13.80
2019-05-28T00:38:27.000Z,13.75
2019-05-28T00:43:14.000Z,13.74
2019-05-28T00:48:02.000Z,13.72
2019-05-28T00:52:48.000Z,13.74
2019-05-28T00:57:35.000Z,13.73
2019-05-28T01:02:24.000Z,13.71
2019-05-28T01:07:11.000Z,13.67
2019-05-28T01:11:58.000Z,13.65
2019-05-28T01:16:45.000Z,13.63
2019-05-28T01:21:33.000Z,13.58
2019-05-28T01:26:20.000Z,13.55
2019-05-28T01:31:08.000Z,13.55
2019-05-28T01:35:55.000Z,13.54
2019-05-28T01:40:41.000Z,13.54
2019-05-28T01:45:29.000Z,13.53
2019-05-28T01:50:17.000Z,13.55
2019-05-28T01:55:04.000Z,13.55
2019-05-28T01:59:52.000Z,13.58
2019-05-28T02:04:39.000Z,13.59
2019-05-28T02:09:26.000Z,13.59
2019-05-28T02:14:14.000Z,13.59
2019-05-28T02:19:01.000Z,13.58
2019-05-28T02:23:47.000Z,13.52
2019-05-28T02:28:36.000Z,13.44
2019-05-28T02:33:24.000Z,13.37
2019-05-28T02:38:11.000Z,13.31
2019-05-28T02:42:59.000Z,13.26
2019-05-28T02:47:45.000Z,13.22
2019-05-28T02:52:33.000Z,13.15
2019-05-28T02:57:20.000Z,13.08
2019-05-28T03:02:08.000Z,12.95
2019-05-28T03:06:56.000Z,12.87
2019-05-28T03:11:43.000Z,12.80
2019-05-28T03:16:31.000Z,12.75
2019-05-28T03:21:19.000Z,12.72
2019-05-28T03:26:07.000Z,12.69
2019-05-28T03:30:55.000Z,12.68
2019-05-28T03:35:43.000Z,12.68
2019-05-28T03:40:31.000Z,12.68
2019-05-28T03:45:18.000Z,12.68
2019-05-28T03:50:05.000Z,12.67
2019-05-28T03:54:54.000Z,12.67
2019-05-28T03:59:41.000Z,12.67
2019-05-28T04:04:29.000Z,12.69
2019-05-28T04:09:16.000Z,12.75
2019-05-28T04:14:04.000Z,12.75
2019-05-28T04:18:52.000Z,12.73
2019-05-28T04:23:40.000Z,12.69
2019-05-28T04:28:28.000Z,12.68
2019-05-28T04:33:16.000Z,12.68
2019-05-28T04:38:03.000Z,12.65
2019-05-28T04:42:50.000Z,12.64
2019-05-28T04:47:39.000Z,12.66
2019-05-28T04:52:27.000Z,12.59
2019-05-28T04:57:15.000Z,12.56
2019-05-28T05:04:00.000Z,12.57
2019-05-28T05:04:59.000Z,12.58
2019-05-28T05:05:58.000Z,12.58
2019-05-28T05:06:57.000Z,12.59
2019-05-28T05:07:55.000Z,12.59
2019-05-28T05:08:54.000Z,12.61
2019-05-28T05:10:51.000Z,12.64
2019-05-28T05:12:49.000Z,12.66
2019-05-28T05:13:48.000Z,12.67
2019-05-28T05:14:46.000Z,12.66
2019-05-28T05:15:45.000Z,12.66
2019-05-28T05:16:44.000Z,12.68
2019-05-28T05:18:42.000Z,12.66
2019-05-28T05:19:41.000Z,12.65
2019-05-28T05:21:37.000Z,12.62
2019-05-28T05:23:36.000Z,12.56
2019-05-28T05:25:33.000Z,12.52
2019-05-28T05:27:31.000Z,12.47
2019-05-28T05:29:29.000Z,12.41
2019-05-28T05:31:26.000Z,12.37
2019-05-28T05:33:24.000Z,12.33
2019-05-28T05:34:23.000Z,12.31
2019-05-28T05:35:22.000Z,12.29
2019-05-28T05:36:21.000Z,12.29
2019-05-28T05:37:20.000Z,12.29
2019-05-28T05:38:18.000Z,12.29
2019-05-28T05:39:16.000Z,12.29
2019-05-28T05:40:16.000Z,12.29
2019-05-28T05:41:15.000Z,12.29
2019-05-28T05:42:13.000Z,12.32
2019-05-28T05:43:12.000Z,12.33
2019-05-28T05:44:11.000Z,12.34
2019-05-28T05:45:10.000Z,12.36
2019-05-28T05:46:09.000Z,12.38
2019-05-28T05:47:08.000Z,12.38
2019-05-28T05:48:06.000Z,12.40
2019-05-28T05:49:05.000Z,12.42
2019-05-28T05:51:03.000Z,12.46
2019-05-28T05:53:00.000Z,12.49
2019-05-28T05:53:59.000Z,12.53
2019-05-28T05:54:58.000Z,12.54
2019-05-28T05:55:56.000Z,12.55
2019-05-28T05:56:56.000Z,12.57
2019-05-28T05:57:55.000Z,12.57
2019-05-28T05:58:52.000Z,12.59
2019-05-28T05:59:52.000Z,12.61
2019-05-28T06:01:49.000Z,12.63
2019-05-28T06:03:47.000Z,12.64
2019-05-28T06:04:46.000Z,12.66
2019-05-28T06:05:45.000Z,12.67
2019-05-28T06:06:44.000Z,12.70
2019-05-28T06:07:42.000Z,12.72
2019-05-28T06:08:42.000Z,12.73
2019-05-28T06:09:40.000Z,12.73
2019-05-28T06:11:37.000Z,12.77
2019-05-28T06:13:36.000Z,12.81
2019-05-28T06:14:35.000Z,12.82
2019-05-28T06:16:32.000Z,12.84
2019-05-28T06:18:28.000Z,12.88
2019-05-28T06:19:27.000Z,12.88
2019-05-28T06:20:26.000Z,12.90
2019-05-28T06:21:25.000Z,12.91
2019-05-28T06:22:24.000Z,12.90
2019-05-28T06:23:23.000Z,12.91
2019-05-28T06:24:22.000Z,12.92
2019-05-28T06:25:20.000Z,12.93
2019-05-28T06:26:20.000Z,12.95
2019-05-28T06:27:17.000Z,12.96
2019-05-28T06:28:16.000Z,12.97
2019-05-28T06:29:17.000Z,12.98
2019-05-28T06:31:13.000Z,12.99
2019-05-28T06:33:12.000Z,12.99
2019-05-28T06:35:09.000Z,12.99
2019-05-28T06:36:09.000Z,13.01
2019-05-28T06:38:05.000Z,13.03
2019-05-28T06:39:04.000Z,13.05
2019-05-28T06:42:01.000Z,13.11
2019-05-28T06:43:58.000Z,13.15
2019-05-28T06:44:57.000Z,13.18
2019-05-28T06:45:56.000Z,13.22
2019-05-28T06:46:55.000Z,13.24
2019-05-28T06:47:54.000Z,13.26
2019-05-28T06:48:52.000Z,13.30
2019-05-28T06:49:51.000Z,13.33
2019-05-28T06:50:49.000Z,13.37
2019-05-28T06:51:48.000Z,13.42
2019-05-28T06:52:48.000Z,13.44
2019-05-28T06:53:47.000Z,13.45
2019-05-28T06:54:46.000Z,13.47
2019-05-28T06:55:45.000Z,13.50
2019-05-28T06:56:43.000Z,13.52
2019-05-28T06:57:42.000Z,13.53
2019-05-28T06:58:41.000Z,13.54
2019-05-28T06:59:40.000Z,13.54
2019-05-28T07:01:38.000Z,13.53
2019-05-28T07:02:37.000Z,13.52
2019-05-28T07:04:35.000Z,13.49
2019-05-28T07:06:31.000Z,13.47
2019-05-28T07:07:31.000Z,13.46
2019-05-28T07:08:30.000Z,13.44
2019-05-28T07:09:28.000Z,13.44
2019-05-28T07:10:28.000Z,13.44
2019-05-28T07:11:26.000Z,13.45
2019-05-28T07:12:25.000Z,13.46
2019-05-28T07:13:24.000Z,13.46
2019-05-28T07:14:23.000Z,13.46
2019-05-28T07:15:21.000Z,13.45
2019-05-28T07:16:20.000Z,13.44
2019-05-28T07:17:19.000Z,13.43
2019-05-28T07:18:18.000Z,13.41
2019-05-28T07:20:16.000Z,13.40
2019-05-28T07:21:15.000Z,13.40
2019-05-28T07:22:13.000Z,13.41
2019-05-28T07:23:12.000Z,13.43
2019-05-28T07:24:11.000Z,13.45
2019-05-28T07:25:09.000Z,13.46
2019-05-28T07:26:08.000Z,13.48
2019-05-28T07:27:07.000Z,13.49
2019-05-28T07:28:06.000Z,13.52
2019-05-28T07:30:04.000Z,13.52
2019-05-28T07:31:03.000Z,13.53
2019-05-28T07:33:01.000Z,13.54
2019-05-28T07:34:00.000Z,13.57
2019-05-28T07:34:58.000Z,13.58
2019-05-28T07:35:57.000Z,13.61
2019-05-28T07:36:56.000Z,13.65
2019-05-28T07:37:54.000Z,13.72
2019-05-28T07:38:55.000Z,13.76
2019-05-28T07:39:53.000Z,13.83
2019-05-28T07:40:51.000Z,13.88
2019-05-28T07:41:50.000Z,13.97
2019-05-28T07:42:50.000Z,14.03
2019-05-28T07:43:49.000Z,14.10
2019-05-28T07:44:46.000Z,14.17
2019-05-28T07:45:46.000Z,14.24
2019-05-28T07:46:45.000Z,14.33
2019-05-28T07:47:44.000Z,14.38
2019-05-28T07:48:47.000Z,14.46
2019-05-28T07:49:41.000Z,14.56
2019-05-28T07:50:41.000Z,14.70
2019-05-28T07:51:39.000Z,14.84
2019-05-28T07:52:37.000Z,15.03
2019-05-28T07:53:36.000Z,15.20
2019-05-28T07:54:36.000Z,15.36
2019-05-28T07:55:33.000Z,15.51
2019-05-28T07:56:33.000Z,15.70
2019-05-28T07:57:32.000Z,15.87
2019-05-28T07:58:31.000Z,15.98
2019-05-28T08:00:29.000Z,16.19
2019-05-28T08:01:28.000Z,16.29
2019-05-28T08:02:27.000Z,16.40
2019-05-28T08:03:25.000Z,16.52
2019-05-28T08:05:22.000Z,16.70
2019-05-28T08:06:22.000Z,16.79
2019-05-28T08:07:21.000Z,16.84
2019-05-28T08:08:20.000Z,16.89
2019-05-28T08:09:19.000Z,16.92
2019-05-28T08:10:18.000Z,16.94
2019-05-28T08:11:16.000Z,16.94
2019-05-28T08:12:15.000Z,16.92
2019-05-28T08:13:13.000Z,16.86
2019-05-28T08:14:13.000Z,16.81
2019-05-28T08:15:12.000Z,16.74
2019-05-28T08:16:10.000Z,16.69
2019-05-28T08:17:09.000Z,16.65
2019-05-28T08:18:08.000Z,16.65
2019-05-28T08:19:07.000Z,16.68
2019-05-28T08:21:05.000Z,16.82
2019-05-28T08:22:04.000Z,16.87
2019-05-28T08:23:02.000Z,16.93
2019-05-28T08:25:00.000Z,17.07
2019-05-28T08:25:58.000Z,17.14
2019-05-28T08:26:58.000Z,17.35
2019-05-28T08:27:57.000Z,17.48
2019-05-28T08:28:56.000Z,17.56
2019-05-28T08:30:54.000Z,17.66
2019-05-28T08:31:53.000Z,17.67
2019-05-28T08:32:52.000Z,17.65
2019-05-28T08:33:51.000Z,17.62
2019-05-28T08:34:50.000Z,17.62
2019-05-28T08:35:48.000Z,17.63
2019-05-28T08:36:48.000Z,17.66
2019-05-28T08:37:46.000Z,17.68
2019-05-28T08:39:45.000Z,17.74
2019-05-28T08:40:43.000Z,17.76
2019-05-28T08:42:41.000Z,17.75
2019-05-28T08:43:40.000Z,17.74
2019-05-28T08:44:38.000Z,17.72
2019-05-28T08:45:37.000Z,17.69
2019-05-28T08:46:36.000Z,17.67
2019-05-28T08:47:35.000Z,17.61
2019-05-28T08:48:34.000Z,17.53
2019-05-28T08:50:32.000Z,17.39
2019-05-28T08:51:30.000Z,17.34
2019-05-28T08:52:29.000Z,17.33
2019-05-28T08:53:28.000Z,17.36
2019-05-28T08:54:27.000Z,17.35
2019-05-28T08:55:26.000Z,17.46
2019-05-28T08:56:25.000Z,17.49
2019-05-28T08:57:24.000Z,17.52
2019-05-28T08:58:22.000Z,17.59
2019-05-28T08:59:21.000Z,17.67
2019-05-28T09:00:20.000Z,17.75
2019-05-28T09:01:20.000Z,17.84
2019-05-28T09:02:19.000Z,17.92
2019-05-28T09:03:18.000Z,17.99
2019-05-28T09:04:15.000Z,18.06
2019-05-28T09:05:14.000Z,18.11
2019-05-28T09:06:13.000Z,18.13
2019-05-28T09:07:12.000Z,18.18
2019-05-28T09:08:11.000Z,18.22
2019-05-28T09:09:10.000Z,18.25
2019-05-28T09:10:09.000Z,18.28
2019-05-28T09:11:08.000Z,18.31
2019-05-28T09:12:06.000Z,18.34
2019-05-28T09:13:06.000Z,18.36
2019-05-28T09:14:04.000Z,18.39
2019-05-28T09:15:02.000Z,18.41
2019-05-28T09:17:01.000Z,18.47
2019-05-28T09:18:58.000Z,18.60
2019-05-28T09:19:58.000Z,18.66
2019-05-28T09:20:56.000Z,18.71
2019-05-28T09:21:55.000Z,18.72
2019-05-28T09:22:54.000Z,18.69
2019-05-28T09:23:53.000Z,18.64
2019-05-28T09:24:52.000Z,18.58
2019-05-28T09:25:51.000Z,18.54
2019-05-28T09:26:48.000Z,18.50
2019-05-28T09:27:48.000Z,18.47
2019-05-28T09:28:47.000Z,18.42
2019-05-28T09:29:46.000Z,18.36
2019-05-28T09:31:44.000Z,18.21
2019-05-28T09:32:43.000Z,18.13
2019-05-28T09:33:41.000Z,18.04
2019-05-28T09:34:40.000Z,17.99
2019-05-28T09:36:38.000Z,17.93
2019-05-28T09:37:37.000Z,17.93
2019-05-28T09:38:36.000Z,17.92
2019-05-28T09:40:33.000Z,17.94
2019-05-28T09:42:31.000Z,17.95
2019-05-28T09:44:29.000Z,17.87
2019-05-28T09:46:26.000Z,17.84
2019-05-28T09:48:24.000Z,17.76
2019-05-28T09:49:23.000Z,17.73
2019-05-28T09:50:22.000Z,17.65
2019-05-28T09:51:21.000Z,17.69
2019-05-28T09:52:20.000Z,17.68
2019-05-28T09:53:19.000Z,17.70
2019-05-28T09:54:18.000Z,17.74
2019-05-28T09:55:17.000Z,17.82
2019-05-28T09:56:15.000Z,17.90
2019-05-28T09:58:12.000Z,18.10
2019-05-28T10:00:10.000Z,18.32
2019-05-28T10:01:10.000Z,18.45
2019-05-28T10:02:07.000Z,18.59
2019-05-28T10:03:07.000Z,18.73
2019-05-28T10:04:06.000Z,18.82
2019-05-28T10:05:05.000Z,18.87
2019-05-28T10:06:04.000Z,18.83
2019-05-28T10:07:03.000Z,18.78
2019-05-28T10:08:02.000Z,18.72
2019-05-28T10:10:00.000Z,18.58
2019-05-28T10:11:57.000Z,18.46
2019-05-28T10:12:55.000Z,18.45
2019-05-28T10:13:54.000Z,18.47
2019-05-28T10:14:54.000Z,18.47
2019-05-28T10:15:52.000Z,18.50
2019-05-28T10:16:50.000Z,18.56
2019-05-28T10:17:50.000Z,18.61
2019-05-28T10:18:49.000Z,18.70
2019-05-28T10:19:48.000Z,18.79
2019-05-28T10:20:47.000Z,18.88
2019-05-28T10:21:46.000Z,18.96
2019-05-28T10:22:45.000Z,19.02
2019-05-28T10:23:43.000Z,19.10
2019-05-28T10:25:40.000Z,19.30
2019-05-28T10:26:40.000Z,19.39
2019-05-28T10:27:39.000Z,19.43
2019-05-28T10:28:38.000Z,19.47
2019-05-28T10:29:37.000Z,19.51
2019-05-28T10:30:36.000Z,19.52
2019-05-28T10:31:35.000Z,19.52
2019-05-28T10:32:33.000Z,19.50
2019-05-28T10:33:31.000Z,19.46
2019-05-28T10:34:31.000Z,19.41
2019-05-28T10:35:29.000Z,19.35
2019-05-28T10:36:29.000Z,19.31
2019-05-28T10:37:28.000Z,19.25
2019-05-28T10:38:26.000Z,19.17
2019-05-28T10:39:25.000Z,19.12
2019-05-28T10:40:24.000Z,19.08
2019-05-28T10:41:23.000Z,19.03
2019-05-28T10:43:21.000Z,18.99
2019-05-28T10:44:20.000Z,19.00
2019-05-28T10:45:18.000Z,19.01
2019-05-28T10:46:17.000Z,19.02
2019-05-28T10:47:16.000Z,19.05
2019-05-28T10:48:15.000Z,19.06
2019-05-28T10:49:14.000Z,19.09
2019-05-28T10:50:13.000Z,19.12
2019-05-28T10:51:11.000Z,19.18
2019-05-28T10:52:13.000Z,19.23
2019-05-28T10:53:09.000Z,19.24
2019-05-28T10:54:07.000Z,19.26
2019-05-28T10:55:06.000Z,19.30
2019-05-28T10:56:06.000Z,19.35
2019-05-28T10:57:06.000Z,19.38
2019-05-28T10:58:12.000Z,19.40
2019-05-28T10:59:03.000Z,19.42
2019-05-28T11:01:00.000Z,19.45
2019-05-28T11:01:59.000Z,19.46
2019-05-28T11:02:58.000Z,19.45
2019-05-28T11:03:56.000Z,19.48
2019-05-28T11:04:56.000Z,19.52
2019-05-28T11:05:53.000Z,19.57
2019-05-28T11:06:53.000Z,19.58
2019-05-28T11:07:52.000Z,19.58
2019-05-28T11:08:51.000Z,19.58
2019-05-28T11:09:49.000Z,19.59
2019-05-28T11:11:48.000Z,19.59
2019-05-28T11:13:46.000Z,19.61
2019-05-28T11:14:44.000Z,19.64
2019-05-28T11:15:43.000Z,19.68
2019-05-28T11:16:42.000Z,19.76
2019-05-28T11:17:41.000Z,19.85
2019-05-28T11:18:40.000Z,19.95
2019-05-28T11:19:39.000Z,20.08
2019-05-28T11:21:37.000Z,20.46
2019-05-28T11:22:36.000Z,20.69
2019-05-28T11:23:35.000Z,20.90
2019-05-28T11:24:34.000Z,21.15
2019-05-28T11:25:33.000Z,21.35
2019-05-28T11:26:31.000Z,21.50
2019-05-28T11:27:30.000Z,21.67
2019-05-28T11:28:29.000Z,21.90
2019-05-28T11:29:28.000Z,22.12
2019-05-28T11:30:27.000Z,22.34
2019-05-28T11:31:25.000Z,22.55
2019-05-28T11:32:24.000Z,22.74
2019-05-28T11:33:24.000Z,22.99
2019-05-28T11:34:22.000Z,23.20
2019-05-28T11:35:21.000Z,23.45
2019-05-28T11:36:20.000Z,23.70
2019-05-28T11:37:19.000Z,23.87
2019-05-28T11:38:18.000Z,24.02
2019-05-28T11:40:16.000Z,24.28
2019-05-28T11:41:14.000Z,24.29
2019-05-28T11:42:12.000Z,24.29
2019-05-28T11:43:10.000Z,24.24
2019-05-28T11:44:10.000Z,24.20
2019-05-28T11:45:08.000Z,24.15
2019-05-28T11:46:08.000Z,24.08
2019-05-28T11:47:06.000Z,24.03
2019-05-28T11:48:05.000Z,23.97
2019-05-28T11:50:04.000Z,23.84
2019-05-28T11:51:02.000Z,23.73
2019-05-28T11:53:00.000Z,23.58
2019-05-28T11:53:58.000Z,23.53
2019-05-28T11:54:57.000Z,23.49
2019-05-28T11:55:57.000Z,23.42
2019-05-28T11:57:54.000Z,23.24
2019-05-28T11:58:53.000Z,23.09
2019-05-28T12:00:50.000Z,22.76
2019-05-28T12:01:50.000Z,22.59
2019-05-28T12:02:48.000Z,22.44
2019-05-28T12:03:47.000Z,22.29
2019-05-28T12:04:46.000Z,22.12
2019-05-28T12:05:45.000Z,21.97
2019-05-28T12:06:44.000Z,21.83
2019-05-28T12:07:43.000Z,21.71
2019-05-28T12:08:42.000Z,21.59
2019-05-28T12:09:40.000Z,21.43
2019-05-28T12:10:38.000Z,21.27
2019-05-28T12:11:38.000Z,21.10
2019-05-28T12:12:36.000Z,20.91
2019-05-28T12:13:36.000Z,20.70
2019-05-28T12:14:34.000Z,20.48
2019-05-28T12:15:33.000Z,20.26
2019-05-28T12:16:32.000Z,20.06
2019-05-28T12:17:31.000Z,19.89
2019-05-28T12:18:30.000Z,19.72
2019-05-28T12:20:27.000Z,19.41
2019-05-28T12:21:26.000Z,19.26
2019-05-28T12:22:25.000Z,19.14
2019-05-28T12:23:24.000Z,19.01
2019-05-28T12:24:23.000Z,18.87
2019-05-28T12:25:22.000Z,18.75
2019-05-28T12:26:21.000Z,18.64
2019-05-28T12:27:20.000Z,18.54
2019-05-28T12:28:18.000Z,18.45
2019-05-28T12:30:16.000Z,18.27
2019-05-28T12:31:15.000Z,18.20
2019-05-28T12:32:14.000Z,18.11
2019-05-28T12:33:13.000Z,18.02
2019-05-28T12:35:10.000Z,17.80
2019-05-28T12:36:09.000Z,17.70
2019-05-28T12:37:08.000Z,17.59
2019-05-28T12:38:07.000Z,17.49
2019-05-28T12:39:05.000Z,17.39
2019-05-28T12:41:03.000Z,17.26
2019-05-28T12:42:01.000Z,17.19
2019-05-28T12:43:59.000Z,17.07
2019-05-28T12:44:58.000Z,17.02
2019-05-28T12:45:57.000Z,16.95
2019-05-28T12:46:56.000Z,16.86
2019-05-28T12:47:55.000Z,16.79
2019-05-28T12:48:54.000Z,16.71
2019-05-28T12:50:52.000Z,16.61
2019-05-28T12:51:50.000Z,16.55
2019-05-28T12:53:48.000Z,16.40
2019-05-28T12:54:45.000Z,16.32
2019-05-28T12:55:45.000Z,16.25
2019-05-28T12:56:44.000Z,16.15
2019-05-28T12:57:43.000Z,16.03
2019-05-28T12:58:42.000Z,15.90
2019-05-28T12:59:41.000Z,15.80
2019-05-28T13:01:38.000Z,15.57
2019-05-28T13:03:35.000Z,15.30
2019-05-28T13:04:34.000Z,15.19
2019-05-28T13:05:33.000Z,15.09
2019-05-28T13:06:32.000Z,14.96
2019-05-28T13:07:31.000Z,14.88
2019-05-28T13:09:29.000Z,14.75
2019-05-28T13:11:25.000Z,14.68
2019-05-28T13:12:25.000Z,14.65
2019-05-28T13:13:24.000Z,14.64
2019-05-28T13:15:22.000Z,14.64
2019-05-28T13:17:19.000Z,14.62
2019-05-28T13:18:18.000Z,14.61
2019-05-28T13:19:16.000Z,14.60
2019-05-28T13:21:15.000Z,14.63
2019-05-28T13:22:14.000Z,14.64
2019-05-28T13:24:11.000Z,14.66
2019-05-28T13:25:10.000Z,14.68
2019-05-28T13:26:09.000Z,14.69
2019-05-28T13:28:07.000Z,14.71
2019-05-28T13:30:04.000Z,14.71
2019-05-28T13:33:00.000Z,14.77
2019-05-28T13:34:58.000Z,14.81
2019-05-28T13:35:56.000Z,14.83
2019-05-28T13:36:56.000Z,14.85
2019-05-28T13:37:55.000Z,14.87
2019-05-28T13:39:53.000Z,14.89
2019-05-28T13:41:49.000Z,14.88
2019-05-28T13:43:47.000Z,14.86
2019-05-28T13:44:46.000Z,14.85
2019-05-28T13:45:45.000Z,14.87
2019-05-28T13:47:42.000Z,14.88
2019-05-28T13:48:41.000Z,14.86
2019-05-28T13:52:35.000Z,14.85
2019-05-28T13:53:33.000Z,14.84
2019-05-28T13:54:32.000Z,14.82
2019-05-28T13:56:29.000Z,14.74
2019-05-28T13:57:28.000Z,14.70
2019-05-28T13:58:27.000Z,14.63
2019-05-28T13:59:25.000Z,14.54
2019-05-28T14:01:23.000Z,14.36
2019-05-28T14:03:20.000Z,14.22
2019-05-28T14:04:19.000Z,14.17
2019-05-28T14:05:17.000Z,14.13
2019-05-28T14:06:16.000Z,14.08
2019-05-28T14:07:16.000Z,14.03
2019-05-28T14:08:13.000Z,13.98
2019-05-28T14:09:12.000Z,13.90
2019-05-28T14:10:11.000Z,13.82
2019-05-28T14:11:09.000Z,13.72
2019-05-28T14:12:08.000Z,13.63
2019-05-28T14:13:07.000Z,13.55
2019-05-28T14:14:06.000Z,13.47
2019-05-28T14:15:05.000Z,13.41
2019-05-28T14:16:03.000Z,13.33
2019-05-28T14:17:02.000Z,13.28
2019-05-28T14:18:59.000Z,13.18
2019-05-28T14:19:58.000Z,13.16
2019-05-28T14:20:56.000Z,13.11
2019-05-28T14:21:55.000Z,13.10
2019-05-28T14:22:53.000Z,13.09
2019-05-28T14:23:52.000Z,13.08
2019-05-28T14:24:51.000Z,13.08
2019-05-28T14:25:49.000Z,13.08
2019-05-28T14:26:49.000Z,13.03
2019-05-28T14:27:48.000Z,13.11
2019-05-28T14:28:45.000Z,13.12
2019-05-28T14:29:44.000Z,13.16
2019-05-28T14:31:41.000Z,13.23
2019-05-28T14:32:40.000Z,13.26
2019-05-28T14:33:38.000Z,13.31
2019-05-28T14:34:37.000Z,13.37
2019-05-28T14:35:37.000Z,13.44
2019-05-28T14:36:34.000Z,13.51
2019-05-28T14:37:33.000Z,13.61
2019-05-28T14:38:31.000Z,13.70
2019-05-28T14:39:30.000Z,13.80
2019-05-28T14:41:27.000Z,14.03
2019-05-28T14:43:25.000Z,14.24
2019-05-28T14:44:23.000Z,14.36
